メインページ
METAR-TAF:

METAR-TAF

空港 :

ブライダフ, サウジアラビア

緯度: 26-18N, 経度: 043-46E, 海抜: 648m

現時点の気象観測

当レポートは1時間14分前の20:00(UTC)に作成
西/北西の風 4kt
気温 37°C
湿度 20%
気圧 1006 hPa
視程10km以上
1,500メートル以下は雲なし、積乱雲なし

METAR: OEGS 212000Z 30004KT CAVOK 37/10 Q1006

時間: 00:14 (21:14 UTC)

予報

当レポートは10時間14分前の11:00(UTC)に作成
予報は21日の 12時(UTC)から 22日の 18時(UTC)まで有効
北/北西の風 6kt、最大16ktの突風を伴う
視程10km以上
1,500メートル以下は雲なし、積乱雲なし
21日の 18時(UTC)から 21日の 20時(UTC)まで徐々に
北東の風 8kt

TAF: OEGS 211100Z 2112/2218 34006G16KT CAVOK BECMG 2118/2120 04008KT

4,000以上の空港の気象観測と天気予報(METAR報とTAF報)

利用可能な観測所は地図上に黄色い丸と赤い丸で示す。

丸の上にカーソルを重ねると観測所名を参照できる。

次にクリックすると気象観測と天気予報を参照できる。

マップの切り替え:黒色「×」印の緑ボタンをクリックして拡大、「-」印の緑ボタンをクリックして縮小、緑色の三角印をクリックして隣りの地図に切り替え


METAR-TAF: